createdAt,value
2019-02-06T00:00:43.964Z,13.43
2019-02-06T00:03:15.949Z,13.18
2019-02-06T00:05:46.283Z,12.13
2019-02-06T00:08:16.937Z,13.65
2019-02-06T00:10:47.567Z,12.10
2019-02-06T00:13:18.254Z,12.70
2019-02-06T00:15:48.938Z,12.80
2019-02-06T00:18:19.356Z,11.25
2019-02-06T00:20:49.943Z,11.90
2019-02-06T00:23:20.356Z,14.18
2019-02-06T00:25:51.634Z,12.10
2019-02-06T00:28:22.238Z,13.08
2019-02-06T00:30:52.920Z,13.35
2019-02-06T00:33:23.268Z,12.80
2019-02-06T00:35:53.917Z,12.50
2019-02-06T00:38:24.488Z,13.20
2019-02-06T00:40:54.811Z,12.75
2019-02-06T00:43:25.440Z,12.73
2019-02-06T00:45:56.201Z,12.55
2019-02-06T00:48:26.895Z,13.70
2019-02-06T00:50:57.521Z,11.90
2019-02-06T00:53:28.183Z,12.35
2019-02-06T00:55:58.774Z,11.73
2019-02-06T00:58:29.602Z,12.25
2019-02-06T01:01:00.244Z,13.43
2019-02-06T01:03:30.881Z,11.75
2019-02-06T01:06:01.240Z,10.70
2019-02-06T01:08:32.590Z,12.18
2019-02-06T01:11:03.300Z,12.20
2019-02-06T01:13:33.638Z,11.90
2019-02-06T01:16:04.576Z,12.07
2019-02-06T01:18:35.156Z,12.28
2019-02-06T01:21:05.783Z,12.00
2019-02-06T01:23:36.421Z,13.90
2019-02-06T01:26:07.038Z,12.30
2019-02-06T01:28:37.633Z,12.60
2019-02-06T01:31:09.162Z,10.80
2019-02-06T01:33:39.745Z,12.43
2019-02-06T01:36:10.071Z,11.75
2019-02-06T01:38:40.449Z,11.65
2019-02-06T01:41:11.050Z,12.73
2019-02-06T01:43:41.405Z,11.53
2019-02-06T01:46:12.087Z,10.93
2019-02-06T01:48:42.449Z,11.03
2019-02-06T01:51:13.148Z,11.73
2019-02-06T01:53:44.055Z,10.75
2019-02-06T01:56:14.410Z,11.50
2019-02-06T01:58:44.771Z,11.38
2019-02-06T02:01:15.509Z,11.40
2019-02-06T02:03:46.418Z,11.40
2019-02-06T02:06:17.034Z,12.95
2019-02-06T02:08:49.324Z,11.03
2019-02-06T02:11:19.675Z,12.23
2019-02-06T02:13:50.281Z,10.48
2019-02-06T02:16:20.669Z,12.03
2019-02-06T02:18:51.295Z,12.25
2019-02-06T02:21:22.176Z,12.00
2019-02-06T02:23:52.570Z,13.28
2019-02-06T02:26:23.182Z,12.28
2019-02-06T02:28:53.859Z,11.60
2019-02-06T02:31:24.529Z,12.00
2019-02-06T02:33:54.895Z,12.50
2019-02-06T02:36:25.224Z,11.55
2019-02-06T02:38:56.754Z,12.80
2019-02-06T02:41:27.396Z,11.95
2019-02-06T02:43:58.133Z,12.90
2019-02-06T02:46:29.157Z,13.03
2019-02-06T02:48:59.983Z,12.55
2019-02-06T02:51:31.000Z,13.60
2019-02-06T02:54:01.380Z,12.53
2019-02-06T02:56:31.885Z,11.68
2019-02-06T02:59:02.523Z,12.90
2019-02-06T03:01:40.531Z,13.22
2019-02-06T03:04:12.757Z,13.50
2019-02-06T03:06:43.395Z,12.43
2019-02-06T03:09:14.037Z,11.85
2019-02-06T03:11:44.434Z,12.30
2019-02-06T03:14:15.063Z,12.30
2019-02-06T03:16:45.744Z,13.53
2019-02-06T03:19:16.633Z,13.53
2019-02-06T03:21:46.964Z,13.38
2019-02-06T03:24:17.602Z,13.58
2019-02-06T03:26:47.933Z,13.75
2019-02-06T03:29:18.279Z,13.72
2019-02-06T03:31:48.747Z,15.03
2019-02-06T03:34:19.634Z,13.88
2019-02-06T03:36:49.959Z,14.70
2019-02-06T03:39:20.340Z,14.43
2019-02-06T03:41:50.996Z,13.93
2019-02-06T03:44:21.589Z,14.87
2019-02-06T03:46:52.320Z,15.10
2019-02-06T03:49:22.906Z,15.15
2019-02-06T03:51:53.249Z,15.15
2019-02-06T03:54:23.640Z,15.15
2019-02-06T03:56:54.842Z,15.88
2019-02-06T03:59:25.204Z,15.55
2019-02-06T04:01:56.070Z,15.80
2019-02-06T04:04:26.696Z,15.40
2019-02-06T04:07:01.149Z,14.58
2019-02-06T04:09:29.695Z,15.60
2019-02-06T04:12:00.360Z,16.50
2019-02-06T04:14:30.708Z,17.12
2019-02-06T04:17:01.439Z,16.85
2019-02-06T04:19:33.125Z,17.98
2019-02-06T04:22:03.469Z,16.40
2019-02-06T04:24:33.868Z,18.52
2019-02-06T04:27:04.199Z,18.40
2019-02-06T04:29:34.973Z,19.40
2019-02-06T04:32:05.303Z,19.55
2019-02-06T04:34:35.652Z,20.45
2019-02-06T04:37:07.162Z,21.12
2019-02-06T04:39:37.766Z,20.68
2019-02-06T04:42:08.122Z,21.48
2019-02-06T04:44:38.484Z,20.10
2019-02-06T04:47:09.129Z,19.90
2019-02-06T04:49:39.751Z,19.20
2019-02-06T04:52:10.127Z,20.92
2019-02-06T04:54:40.772Z,20.00
2019-02-06T04:57:11.383Z,20.90
2019-02-06T04:59:41.770Z,22.05
2019-02-06T05:02:12.490Z,22.58
2019-02-06T05:04:43.370Z,22.82
2019-02-06T05:07:19.418Z,21.10
2019-02-06T05:09:46.058Z,20.88
2019-02-06T05:12:16.679Z,21.82
2019-02-06T05:14:47.322Z,21.87
2019-02-06T05:17:17.649Z,21.17
2019-02-06T05:19:48.260Z,20.60
2019-02-06T05:22:18.907Z,20.72
2019-02-06T05:24:49.783Z,22.62
2019-02-06T05:27:20.430Z,20.82
2019-02-06T05:29:51.097Z,23.65
2019-02-06T05:32:21.705Z,24.25
2019-02-06T05:34:52.302Z,23.50
2019-02-06T05:37:31.798Z,24.43
2019-02-06T05:39:55.028Z,25.05
2019-02-06T05:42:25.351Z,25.45
2019-02-06T05:44:55.825Z,25.55
2019-02-06T05:47:26.340Z,25.45
2019-02-06T05:49:56.692Z,26.65
2019-02-06T05:52:27.181Z,24.18
2019-02-06T05:54:58.057Z,25.85
2019-02-06T05:57:28.387Z,26.17
2019-02-06T05:59:59.021Z,26.42
2019-02-06T06:02:29.665Z,26.55
2019-02-06T06:05:00.284Z,27.22
2019-02-06T06:07:30.959Z,26.33
2019-02-06T06:10:01.559Z,25.27
2019-02-06T06:12:31.910Z,26.68
2019-02-06T06:15:02.921Z,25.97
2019-02-06T06:17:33.283Z,27.65
2019-02-06T06:20:04.424Z,26.62
2019-02-06T06:22:34.827Z,27.70
2019-02-06T06:25:08.763Z,27.80
2019-02-06T06:27:39.631Z,25.23
2019-02-06T06:30:14.589Z,26.77
2019-02-06T06:32:45.438Z,28.10
2019-02-06T06:35:16.076Z,27.32
2019-02-06T06:37:57.619Z,28.73
2019-02-06T06:40:23.417Z,26.12
2019-02-06T06:42:54.317Z,28.25
2019-02-06T06:45:25.909Z,27.10
2019-02-06T06:47:56.250Z,27.80
2019-02-06T06:50:27.058Z,27.80
2019-02-06T06:52:57.966Z,26.40
2019-02-06T06:55:28.798Z,28.23
2019-02-06T06:57:59.216Z,27.50
2019-02-06T07:00:31.606Z,26.93
2019-02-06T07:03:01.931Z,27.95
2019-02-06T07:05:32.571Z,29.70
2019-02-06T07:08:11.144Z,29.23
2019-02-06T07:10:35.969Z,29.57
2019-02-06T07:13:06.641Z,28.92
2019-02-06T07:15:36.964Z,28.70
2019-02-06T07:18:07.563Z,31.42
2019-02-06T07:20:37.971Z,30.92
2019-02-06T07:23:08.594Z,28.92
2019-02-06T07:25:38.906Z,28.55
2019-02-06T07:28:09.563Z,28.60
2019-02-06T07:30:39.925Z,28.42
2019-02-06T07:33:10.529Z,29.57
2019-02-06T07:35:41.175Z,27.85
2019-02-06T07:38:23.625Z,29.70
2019-02-06T07:40:44.334Z,29.65
2019-02-06T07:43:15.072Z,29.55
2019-02-06T07:45:45.931Z,28.10
2019-02-06T07:48:16.549Z,27.93
2019-02-06T07:50:46.985Z,28.57
2019-02-06T07:53:17.339Z,28.10
2019-02-06T07:55:47.690Z,28.60
2019-02-06T07:58:18.082Z,28.05
2019-02-06T08:00:48.702Z,28.23
2019-02-06T08:03:19.329Z,27.80
2019-02-06T08:05:49.671Z,31.55
2019-02-06T08:08:20.256Z,29.15
2019-02-06T08:10:51.110Z,28.95
2019-02-06T08:13:22.155Z,28.25
2019-02-06T08:15:52.488Z,28.57
2019-02-06T08:18:23.130Z,28.75
2019-02-06T08:20:53.523Z,28.90
2019-02-06T08:23:23.877Z,28.45
2019-02-06T08:25:54.203Z,29.32
2019-02-06T08:28:24.575Z,28.77
2019-02-06T08:30:54.904Z,31.37
2019-02-06T08:33:25.486Z,29.92
2019-02-06T08:35:55.866Z,32.10
2019-02-06T08:38:26.447Z,30.97
2019-02-06T08:40:57.070Z,28.98
2019-02-06T08:43:27.463Z,27.27
2019-02-06T08:45:58.084Z,28.40
2019-02-06T08:48:28.697Z,28.57
2019-02-06T08:50:59.076Z,25.70
2019-02-06T08:53:29.403Z,27.73
2019-02-06T08:55:59.729Z,26.02
2019-02-06T08:58:30.139Z,26.33
2019-02-06T09:01:00.472Z,29.43
2019-02-06T09:03:31.757Z,29.95
2019-02-06T09:06:02.162Z,27.37
2019-02-06T09:08:32.756Z,27.20
2019-02-06T09:11:03.141Z,28.00
2019-02-06T09:13:34.057Z,26.45
2019-02-06T09:16:04.387Z,25.40
2019-02-06T09:18:34.730Z,25.88
2019-02-06T09:21:05.386Z,23.85
2019-02-06T09:23:36.239Z,24.80
2019-02-06T09:26:06.563Z,25.82
2019-02-06T09:28:37.500Z,24.00
2019-02-06T09:31:07.841Z,22.48
2019-02-06T09:33:38.456Z,24.45
2019-02-06T09:36:09.517Z,21.25
2019-02-06T09:38:40.207Z,22.70
2019-02-06T09:41:10.924Z,21.77
2019-02-06T09:43:41.326Z,22.70
2019-02-06T09:46:11.922Z,23.92
2019-02-06T09:48:42.567Z,22.40
2019-02-06T09:51:13.127Z,23.90
2019-02-06T09:53:43.484Z,22.45
2019-02-06T09:56:14.102Z,22.98
2019-02-06T09:58:44.506Z,22.02
2019-02-06T10:01:14.866Z,22.42
2019-02-06T10:03:47.052Z,22.40
2019-02-06T10:06:17.960Z,22.95
2019-02-06T10:08:48.687Z,20.72
2019-02-06T10:11:19.282Z,21.15
2019-02-06T10:13:49.670Z,21.65
2019-02-06T10:16:20.326Z,19.85
2019-02-06T10:18:50.652Z,19.05
2019-02-06T10:21:20.996Z,19.85
2019-02-06T10:23:52.061Z,17.35
2019-02-06T10:26:22.673Z,15.63
2019-02-06T10:28:53.464Z,18.35
2019-02-06T10:31:24.169Z,16.95
2019-02-06T10:33:54.525Z,15.85
2019-02-06T10:36:25.417Z,17.55
2019-02-06T10:38:56.037Z,18.07
2019-02-06T10:41:26.400Z,16.73
2019-02-06T10:43:56.822Z,16.85
2019-02-06T10:46:27.415Z,16.87
2019-02-06T10:48:57.791Z,15.93
2019-02-06T10:51:28.126Z,16.95
2019-02-06T10:53:58.477Z,15.63
2019-02-06T10:56:29.120Z,15.85
2019-02-06T10:58:59.469Z,14.15
2019-02-06T11:01:30.114Z,16.05
2019-02-06T11:04:00.826Z,14.40
2019-02-06T11:06:31.147Z,13.30
2019-02-06T11:09:01.496Z,14.50
2019-02-06T11:11:32.510Z,13.10
2019-02-06T11:14:03.124Z,14.65
2019-02-06T11:16:33.448Z,12.40
2019-02-06T11:19:04.146Z,12.95
2019-02-06T11:21:34.493Z,13.72
2019-02-06T11:24:05.111Z,12.70
2019-02-06T11:26:35.503Z,13.15
2019-02-06T11:29:05.908Z,12.93
2019-02-06T11:31:36.262Z,12.30
2019-02-06T11:34:06.919Z,12.23
2019-02-06T11:36:37.551Z,11.40
2019-02-06T11:39:12.123Z,10.68
2019-02-06T11:41:42.670Z,10.95
2019-02-06T11:44:13.006Z,12.37
2019-02-06T11:46:43.600Z,11.60
2019-02-06T11:49:15.225Z,11.38
2019-02-06T11:51:45.551Z,11.22
2019-02-06T11:54:16.164Z,11.33
2019-02-06T11:56:46.800Z,11.03
2019-02-06T11:59:17.688Z,10.48
2019-02-06T12:01:49.102Z,10.98
2019-02-06T12:04:19.492Z,9.15
2019-02-06T12:06:50.136Z,10.55
2019-02-06T12:09:21.120Z,10.63
2019-02-06T12:11:51.486Z,9.43
2019-02-06T12:14:21.817Z,10.15
2019-02-06T12:16:52.555Z,10.32
2019-02-06T12:19:23.218Z,9.28
2019-02-06T12:21:54.131Z,7.62
2019-02-06T12:24:24.465Z,8.33
2019-02-06T12:26:54.986Z,8.53
2019-02-06T12:29:25.334Z,9.65
2019-02-06T12:31:55.932Z,9.88
2019-02-06T12:34:26.329Z,10.40
2019-02-06T12:36:57.199Z,9.40
2019-02-06T12:39:28.129Z,9.88
2019-02-06T12:41:58.784Z,10.95
2019-02-06T12:44:29.684Z,11.08
2019-02-06T12:47:00.037Z,10.55
2019-02-06T12:49:31.194Z,10.88
2019-02-06T12:52:01.550Z,8.18
2019-02-06T12:54:31.892Z,9.65
2019-02-06T12:57:02.245Z,9.48
2019-02-06T12:59:32.592Z,8.68
2019-02-06T13:02:03.242Z,9.10
2019-02-06T13:04:33.944Z,9.18
2019-02-06T13:07:04.968Z,9.73
2019-02-06T13:09:35.547Z,8.35
2019-02-06T13:12:06.116Z,9.20
2019-02-06T13:14:36.460Z,8.38
2019-02-06T13:17:07.068Z,8.75
2019-02-06T13:19:37.754Z,8.83
2019-02-06T13:22:08.127Z,7.55
2019-02-06T13:24:38.844Z,8.73
2019-02-06T13:27:42.846Z,9.18
2019-02-06T13:30:17.569Z,8.88
2019-02-06T13:32:48.199Z,9.40
2019-02-06T13:35:19.153Z,8.30
2019-02-06T13:37:49.864Z,8.60
2019-02-06T13:40:28.798Z,7.65
2019-02-06T13:42:59.623Z,9.15
2019-02-06T13:45:45.796Z,7.45
2019-02-06T13:48:16.147Z,9.75
2019-02-06T13:50:46.492Z,8.78
2019-02-06T13:53:16.853Z,9.40
2019-02-06T13:55:47.246Z,9.45
2019-02-06T13:58:20.292Z,10.28
2019-02-06T14:00:52.488Z,10.03
2019-02-06T14:03:22.590Z,10.15
2019-02-06T14:05:52.923Z,9.90
2019-02-06T14:08:23.315Z,9.63
2019-02-06T14:11:00.350Z,8.93
2019-02-06T14:13:25.679Z,11.12
2019-02-06T14:15:56.631Z,10.08
2019-02-06T14:18:27.019Z,9.90
2019-02-06T14:20:57.739Z,10.23
2019-02-06T14:23:33.439Z,10.80
2019-02-06T14:26:14.191Z,11.10
2019-02-06T14:29:17.544Z,11.93
2019-02-06T14:32:19.444Z,10.60
2019-02-06T14:35:21.639Z,10.82
2019-02-06T14:38:05.296Z,10.55
2019-02-06T14:40:46.691Z,10.90
2019-02-06T14:43:24.626Z,10.20
2019-02-06T14:46:31.324Z,11.63
2019-02-06T14:49:12.143Z,12.65
2019-02-06T14:52:16.988Z,12.50
2019-02-06T14:55:06.861Z,10.93
2019-02-06T14:57:59.613Z,11.68
2019-02-06T15:01:00.021Z,11.38
2019-02-06T15:03:38.234Z,11.57
2019-02-06T15:06:37.949Z,11.40
2019-02-06T15:09:32.539Z,11.78
2019-02-06T15:12:16.621Z,12.43
2019-02-06T15:15:06.923Z,11.88
2019-02-06T15:17:53.813Z,11.78
2019-02-06T15:21:06.276Z,10.68
2019-02-06T15:23:47.552Z,10.75
2019-02-06T15:26:25.419Z,11.40
2019-02-06T15:29:14.641Z,10.82
2019-02-06T15:32:16.639Z,11.93
2019-02-06T15:34:55.090Z,9.68
2019-02-06T15:37:45.210Z,11.15
2019-02-06T15:40:38.671Z,11.85
2019-02-06T15:43:13.884Z,11.12
2019-02-06T15:46:20.963Z,10.88
2019-02-06T15:49:11.001Z,10.53
2019-02-06T15:52:01.558Z,10.98
2019-02-06T15:54:57.628Z,11.10
2019-02-06T15:57:58.134Z,10.75
2019-02-06T16:00:45.370Z,11.33
2019-02-06T16:04:02.443Z,10.05
2019-02-06T16:06:41.513Z,11.22
2019-02-06T16:09:26.004Z,11.57
2019-02-06T16:12:09.633Z,11.25
2019-02-06T16:14:53.773Z,11.40
2019-02-06T16:17:57.254Z,13.08
2019-02-06T16:20:59.303Z,11.30
2019-02-06T16:23:55.298Z,11.25
2019-02-06T16:26:51.674Z,12.60
2019-02-06T16:29:41.787Z,11.53
2019-02-06T16:32:22.699Z,13.03
2019-02-06T16:35:26.184Z,12.80
2019-02-06T16:38:28.182Z,10.78
2019-02-06T16:41:24.998Z,12.25
2019-02-06T16:44:09.311Z,12.47
2019-02-06T16:46:47.398Z,12.03
2019-02-06T16:49:25.299Z,13.35
2019-02-06T16:52:15.859Z,11.63
2019-02-06T16:55:27.031Z,13.00
2019-02-06T16:58:16.789Z,11.90
2019-02-06T17:01:03.591Z,12.53
2019-02-06T17:03:56.994Z,14.30
2019-02-06T17:06:54.628Z,15.75
2019-02-06T17:09:35.193Z,13.50
2019-02-06T17:12:25.187Z,13.55
2019-02-06T17:15:12.221Z,13.48
2019-02-06T17:17:59.652Z,13.30
2019-02-06T17:20:41.002Z,14.20
2019-02-06T17:23:41.053Z,14.70
2019-02-06T17:26:37.056Z,13.60
2019-02-06T17:29:24.106Z,14.20
2019-02-06T17:32:08.279Z,14.47
2019-02-06T17:34:59.952Z,15.15
2019-02-06T17:37:58.705Z,14.68
2019-02-06T17:40:42.548Z,15.25
2019-02-06T17:43:44.918Z,15.78
2019-02-06T17:46:25.718Z,13.55
2019-02-06T17:49:41.504Z,14.93
2019-02-06T17:52:37.543Z,15.25
2019-02-06T17:55:15.692Z,15.18
2019-02-06T17:57:46.633Z,15.83
2019-02-06T18:00:36.832Z,14.80
2019-02-06T18:03:14.357Z,15.25
2019-02-06T18:05:46.182Z,13.32
2019-02-06T18:08:16.628Z,14.47
2019-02-06T18:10:47.045Z,15.53
2019-02-06T18:13:18.103Z,14.47
2019-02-06T18:15:48.515Z,14.38
2019-02-06T18:18:19.108Z,32.53
2019-02-06T18:20:49.502Z,18.40
2019-02-06T18:23:20.098Z,16.75
2019-02-06T18:25:50.454Z,14.75
2019-02-06T18:28:20.873Z,14.98
2019-02-06T18:30:51.226Z,13.48
2019-02-06T18:33:21.913Z,15.50
2019-02-06T18:35:52.440Z,14.75
2019-02-06T18:38:23.105Z,14.47
2019-02-06T18:40:53.757Z,13.98
2019-02-06T18:43:24.146Z,14.60
2019-02-06T18:45:54.503Z,15.72
2019-02-06T18:48:25.168Z,14.20
2019-02-06T18:50:55.974Z,15.20
2019-02-06T18:53:26.440Z,14.58
2019-02-06T18:55:56.793Z,15.10
2019-02-06T18:58:27.644Z,14.10
2019-02-06T19:00:58.377Z,15.60
2019-02-06T19:03:36.631Z,14.33
2019-02-06T19:06:07.270Z,14.63
2019-02-06T19:08:39.982Z,13.40
2019-02-06T19:11:09.656Z,15.68
2019-02-06T19:13:40.383Z,14.45
2019-02-06T19:16:11.030Z,14.90
2019-02-06T19:18:41.614Z,14.40
2019-02-06T19:21:12.022Z,14.43
2019-02-06T19:23:42.518Z,14.55
2019-02-06T19:26:13.175Z,15.00
2019-02-06T19:28:44.028Z,14.18
2019-02-06T19:31:14.678Z,14.98
2019-02-06T19:33:45.286Z,14.15
2019-02-06T19:36:15.781Z,15.90
2019-02-06T19:38:46.842Z,14.68
2019-02-06T19:41:17.493Z,15.13
2019-02-06T19:43:48.487Z,14.58
2019-02-06T19:46:19.156Z,14.18
2019-02-06T19:48:49.560Z,13.95
2019-02-06T19:51:20.162Z,14.40
2019-02-06T19:53:51.029Z,14.10
2019-02-06T19:56:21.437Z,15.45
2019-02-06T19:58:52.072Z,14.03
2019-02-06T20:01:22.428Z,14.90
2019-02-06T20:03:52.838Z,15.15
2019-02-06T20:06:29.386Z,14.70
2019-02-06T20:09:00.285Z,14.33
2019-02-06T20:11:30.636Z,15.00
2019-02-06T20:14:00.968Z,15.08
2019-02-06T20:16:31.406Z,13.70
2019-02-06T20:19:01.756Z,14.58
2019-02-06T20:21:32.167Z,14.90
2019-02-06T20:24:03.078Z,15.55
2019-02-06T20:26:33.700Z,13.75
2019-02-06T20:29:04.725Z,15.05
2019-02-06T20:31:35.450Z,14.65
2019-02-06T20:34:06.056Z,14.00
2019-02-06T20:36:36.669Z,14.10
2019-02-06T20:39:07.914Z,15.13
2019-02-06T20:41:38.520Z,13.13
2019-02-06T20:44:08.942Z,14.43
2019-02-06T20:46:39.676Z,14.28
2019-02-06T20:49:09.995Z,13.38
2019-02-06T20:51:40.368Z,14.80
2019-02-06T20:54:10.994Z,14.65
2019-02-06T20:56:41.674Z,14.60
2019-02-06T20:59:12.030Z,14.50
2019-02-06T21:01:42.448Z,15.03
2019-02-06T21:04:12.778Z,13.30
2019-02-06T21:06:43.448Z,13.95
2019-02-06T21:09:14.780Z,14.80
2019-02-06T21:11:45.488Z,15.08
2019-02-06T21:14:16.115Z,14.33
2019-02-06T21:16:46.444Z,13.83
2019-02-06T21:19:16.832Z,14.73
2019-02-06T21:21:47.176Z,14.50
2019-02-06T21:24:17.833Z,14.63
2019-02-06T21:26:48.211Z,14.55
2019-02-06T21:29:19.031Z,13.58
2019-02-06T21:31:49.360Z,13.75
2019-02-06T21:34:19.985Z,14.13
2019-02-06T21:36:51.297Z,14.40
2019-02-06T21:39:21.627Z,14.85
2019-02-06T21:41:52.263Z,14.10
2019-02-06T21:44:22.934Z,13.55
2019-02-06T21:46:53.261Z,14.28
2019-02-06T21:49:23.998Z,13.48
2019-02-06T21:51:54.608Z,13.75
2019-02-06T21:54:25.978Z,13.60
2019-02-06T21:56:56.581Z,14.23
2019-02-06T21:59:26.965Z,13.58
2019-02-06T22:01:57.286Z,13.00
2019-02-06T22:04:28.274Z,13.60
2019-02-06T22:06:58.649Z,13.38
2019-02-06T22:09:29.339Z,14.15
2019-02-06T22:11:59.656Z,13.70
2019-02-06T22:14:30.044Z,12.43
2019-02-06T22:17:00.951Z,15.05
2019-02-06T22:19:31.304Z,12.75
2019-02-06T22:22:01.678Z,12.68
2019-02-06T22:24:32.066Z,12.75
2019-02-06T22:27:02.425Z,13.75
2019-02-06T22:29:32.906Z,12.60
2019-02-06T22:32:03.289Z,13.22
2019-02-06T22:34:33.622Z,13.03
2019-02-06T22:37:04.004Z,12.90
2019-02-06T22:39:34.616Z,12.93
2019-02-06T22:42:05.359Z,12.68
2019-02-06T22:44:36.676Z,13.80
2019-02-06T22:47:07.047Z,13.53
2019-02-06T22:49:37.424Z,12.47
2019-02-06T22:52:08.057Z,12.55
2019-02-06T22:54:38.982Z,12.73
2019-02-06T22:57:09.599Z,11.18
2019-02-06T22:59:40.267Z,12.10
2019-02-06T23:02:10.968Z,11.63
2019-02-06T23:04:41.771Z,11.20
2019-02-06T23:07:12.636Z,11.25
2019-02-06T23:09:43.077Z,11.55
2019-02-06T23:12:13.684Z,11.18
2019-02-06T23:14:44.033Z,11.28
2019-02-06T23:17:14.459Z,11.08
2019-02-06T23:19:45.145Z,11.48
2019-02-06T23:22:15.834Z,11.50
2019-02-06T23:24:46.785Z,11.40
2019-02-06T23:27:17.623Z,10.85
2019-02-06T23:29:47.974Z,11.40
2019-02-06T23:32:18.744Z,10.55
2019-02-06T23:34:49.358Z,11.70
2019-02-06T23:37:20.412Z,10.90
2019-02-06T23:39:50.733Z,11.80
2019-02-06T23:42:21.085Z,11.93
2019-02-06T23:44:51.439Z,11.05
2019-02-06T23:47:22.066Z,10.58
2019-02-06T23:49:52.807Z,9.95
2019-02-06T23:52:23.174Z,10.82
2019-02-06T23:54:53.823Z,10.50
2019-02-06T23:57:24.649Z,11.30
2019-02-06T23:59:55.001Z,10.30
